Terminal Aerodrome Forecast
Issued by NWS

Home | Current Version | Previous Version | Text Only | Print | Product List | Glossary On
Versions: 1 2 3 4 5 6 7 8 9 10 11 12 13 14 15 16
000
FTAK31 PAJN 201723
TAFAKT
TAF
PAKT 201723Z 2018/2118 13005KT 6SM -SHRA BR SCT010 BKN025 OVC050
     FM202000 12012KT P6SM VCSH SCT025 BKN050
     FM210600 14011KT 4SM -RA BR SCT006 OVC015
      AMD LTD TO CLD VIS AND WIND 2106/2115=

USA.gov is the U.S. government's official web portal to all federal, state and local government web resources and services.